createdAt,value
2019-04-29T00:01:52.257Z,101424.58
2019-04-29T00:04:20.808Z,101422.64
2019-04-29T00:06:49.245Z,101419.09
2019-04-29T00:09:19.527Z,101413.86
2019-04-29T00:11:48.000Z,101410.58
2019-04-29T00:14:16.587Z,101413.87
2019-04-29T00:16:52.711Z,101415.79
2019-04-29T00:19:25.881Z,101415.53
2019-04-29T00:21:54.409Z,101422.09
2019-04-29T00:24:22.959Z,101416.34
2019-04-29T00:26:51.438Z,101416.90
2019-04-29T00:29:20.167Z,101414.17
2019-04-29T00:31:48.703Z,101417.14
2019-04-29T00:34:17.157Z,101414.69
2019-04-29T00:36:50.235Z,101406.75
2019-04-29T00:39:35.683Z,101415.52
2019-04-29T00:42:05.899Z,101413.87
2019-04-29T00:44:34.395Z,101412.51
2019-04-29T00:47:02.968Z,101411.12
2019-04-29T00:49:31.431Z,101402.64
2019-04-29T00:51:59.907Z,101402.66
2019-04-29T00:54:32.648Z,101403.18
2019-04-29T00:57:01.184Z,101407.04
2019-04-29T00:59:29.919Z,101397.98
2019-04-29T01:01:58.434Z,101404.27
2019-04-29T01:04:26.870Z,101396.59
2019-04-29T01:06:55.361Z,101402.36
2019-04-29T01:09:24.590Z,101399.59
2019-04-29T01:11:53.121Z,101403.72
2019-04-29T01:14:21.640Z,101404.25
2019-04-29T01:16:50.144Z,101403.74
2019-04-29T01:19:18.616Z,101400.45
2019-04-29T01:21:47.129Z,101401.50
2019-04-29T01:24:15.593Z,101404.53
2019-04-29T01:26:57.669Z,101403.16
2019-04-29T01:29:27.827Z,101397.69
2019-04-29T01:31:56.817Z,101395.48
2019-04-29T01:34:26.934Z,101395.20
2019-04-29T01:36:55.362Z,101395.73
2019-04-29T01:39:25.518Z,101392.45
2019-04-29T01:41:55.600Z,101393.81
2019-04-29T01:44:25.874Z,101385.87
2019-04-29T01:46:54.320Z,101385.05
2019-04-29T01:49:22.836Z,101394.66
2019-04-29T01:51:51.278Z,101390.52
2019-04-29T01:54:19.903Z,101393.83
2019-04-29T01:56:48.351Z,101395.17
2019-04-29T01:59:16.871Z,101384.51
2019-04-29T02:01:45.316Z,101392.40
2019-04-29T02:04:13.840Z,101386.66
2019-04-29T02:06:42.403Z,101390.72
2019-04-29T02:09:12.763Z,101387.22
2019-04-29T02:11:41.218Z,101380.93
2019-04-29T02:14:09.717Z,101375.96
2019-04-29T02:16:38.185Z,101371.85
2019-04-29T02:19:06.764Z,101378.92
2019-04-29T02:21:35.217Z,101370.20
2019-04-29T02:24:11.037Z,101364.48
2019-04-29T02:26:39.551Z,101362.84
2019-04-29T02:29:08.015Z,101361.98
2019-04-29T02:31:40.816Z,101360.89
2019-04-29T02:34:09.563Z,101367.50
2019-04-29T02:36:38.733Z,101352.94
2019-04-29T02:39:16.442Z,101356.75
2019-04-29T02:41:49.068Z,101346.33
2019-04-29T02:44:17.552Z,101347.45
2019-04-29T02:46:46.032Z,101343.36
2019-04-29T02:49:14.525Z,101340.03
2019-04-29T02:51:44.831Z,101335.64
2019-04-29T02:54:13.496Z,101333.99
2019-04-29T02:56:43.604Z,101333.77
2019-04-29T02:59:28.791Z,101329.61
2019-04-29T03:02:05.445Z,101328.25
2019-04-29T03:04:35.573Z,101327.14
2019-04-29T03:07:04.131Z,101321.70
2019-04-29T03:09:34.634Z,101321.41
2019-04-29T03:12:03.187Z,101317.01
2019-04-29T03:14:31.773Z,101315.64
2019-04-29T03:17:00.275Z,101312.63
2019-04-29T03:19:30.417Z,101315.09
2019-04-29T03:22:00.564Z,101311.00
2019-04-29T03:24:29.106Z,101312.64
2019-04-29T03:26:57.607Z,101310.48
2019-04-29T03:29:26.217Z,101309.12
2019-04-29T03:31:56.197Z,101300.55
2019-04-29T03:34:25.054Z,101301.41
2019-04-29T03:36:53.639Z,101295.13
2019-04-29T03:39:22.120Z,101302.27
2019-04-29T03:41:50.594Z,101303.62
2019-04-29T03:44:19.158Z,101295.40
2019-04-29T03:46:47.621Z,101292.13
2019-04-29T03:49:16.454Z,101291.84
2019-04-29T03:51:44.932Z,101288.58
2019-04-29T03:54:13.433Z,101285.30
2019-04-29T03:56:43.631Z,101293.22
2019-04-29T03:59:12.166Z,101286.97
2019-04-29T04:01:53.854Z,101289.69
2019-04-29T04:04:24.014Z,101286.12
2019-04-29T04:06:56.800Z,101282.83
2019-04-29T04:09:26.930Z,101280.92
2019-04-29T04:11:55.411Z,101277.09
2019-04-29T04:14:23.923Z,101281.22
2019-04-29T04:16:59.793Z,101278.77
2019-04-29T04:19:29.982Z,101273.30
2019-04-29T04:21:58.478Z,101275.42
2019-04-29T04:24:26.979Z,101280.69
2019-04-29T04:26:55.467Z,101266.70
2019-04-29T04:29:23.980Z,101264.23
2019-04-29T04:31:52.462Z,101263.14
2019-04-29T04:34:21.017Z,101262.62
2019-04-29T04:36:49.484Z,101261.78
2019-04-29T04:39:18.018Z,101266.45
2019-04-29T04:41:46.489Z,101270.83
2019-04-29T04:44:15.689Z,101276.88
2019-04-29T04:46:44.448Z,101270.56
2019-04-29T04:49:15.883Z,101266.73
2019-04-29T04:51:43.239Z,101262.36
2019-04-29T04:54:11.777Z,101261.50
2019-04-29T04:56:40.258Z,101258.77
2019-04-29T04:59:08.751Z,101261.00
2019-04-29T05:01:37.193Z,101254.97
2019-04-29T05:04:05.775Z,101254.41
2019-04-29T05:06:34.229Z,101254.70
2019-04-29T05:09:04.373Z,101251.42
2019-04-29T05:11:32.827Z,101246.20
2019-04-29T05:14:01.335Z,101252.80
2019-04-29T05:16:29.782Z,101245.94
2019-04-29T05:18:58.301Z,101248.14
2019-04-29T05:21:26.759Z,101250.58
2019-04-29T05:23:55.306Z,101252.49
2019-04-29T05:26:23.779Z,101250.04
2019-04-29T05:28:52.269Z,101250.03
2019-04-29T05:31:20.729Z,101256.64
2019-04-29T05:33:49.291Z,101248.67
2019-04-29T05:36:19.374Z,101251.69
2019-04-29T05:38:49.641Z,101244.84
2019-04-29T05:41:18.552Z,101246.77
2019-04-29T05:44:03.693Z,101243.75
2019-04-29T05:46:36.922Z,101247.03
2019-04-29T05:49:07.130Z,101243.44
2019-04-29T05:51:38.224Z,101243.75
2019-04-29T05:54:14.517Z,101243.47
2019-04-29T05:56:43.029Z,101244.84
2019-04-29T05:59:12.913Z,101249.50
2019-04-29T06:01:42.735Z,101245.66
2019-04-29T06:04:16.359Z,101243.48
2019-04-29T06:06:42.164Z,101245.66
2019-04-29T06:09:11.480Z,101244.03
2019-04-29T06:11:40.910Z,101250.58
2019-04-29T06:14:09.426Z,101255.25
2019-04-29T06:16:38.513Z,101254.98
2019-04-29T06:19:06.973Z,101262.09
2019-04-29T06:21:35.472Z,101250.33
2019-04-29T06:24:06.086Z,101254.70
2019-04-29T06:26:34.150Z,101250.31
2019-04-29T06:29:05.700Z,101255.27
2019-04-29T06:31:32.925Z,101248.69
2019-04-29T06:34:05.119Z,101254.42
2019-04-29T06:36:31.761Z,101253.87
2019-04-29T06:39:00.226Z,101255.80
2019-04-29T06:41:28.751Z,101252.25
2019-04-29T06:44:00.655Z,101248.39
2019-04-29T06:46:27.477Z,101245.39
2019-04-29T06:49:09.238Z,101244.56
2019-04-29T06:51:26.180Z,101228.97
2019-04-29T06:53:54.644Z,101222.66
2019-04-29T06:56:23.183Z,101227.05
2019-04-29T06:58:51.628Z,101220.19
2019-04-29T07:01:20.163Z,101224.55
2019-04-29T07:03:48.633Z,101227.31
2019-04-29T07:06:17.173Z,101217.43
2019-04-29T07:08:45.626Z,101212.75
2019-04-29T07:11:14.451Z,101217.16
2019-04-29T07:13:42.998Z,101216.05
2019-04-29T07:16:11.521Z,101225.09
2019-04-29T07:18:47.797Z,101221.25
2019-04-29T07:21:11.996Z,101224.00
2019-04-29T07:23:40.422Z,101222.92
2019-04-29T07:26:09.050Z,101224.30
2019-04-29T07:28:37.492Z,101219.91
2019-04-29T07:31:06.010Z,101219.09
2019-04-29T07:33:34.463Z,101219.65
2019-04-29T07:36:10.748Z,101217.44
2019-04-29T07:38:41.112Z,101218.27
2019-04-29T07:41:03.420Z,101225.65
2019-04-29T07:43:31.902Z,101220.73
2019-04-29T07:46:03.793Z,101218.81
2019-04-29T07:48:32.233Z,101216.08
2019-04-29T07:51:04.187Z,101220.18
2019-04-29T07:53:38.720Z,101217.16
2019-04-29T07:56:01.652Z,101212.77
2019-04-29T07:58:31.281Z,101224.58
2019-04-29T08:00:59.849Z,101219.09
2019-04-29T08:03:28.309Z,101219.36
2019-04-29T08:05:58.263Z,101221.27
2019-04-29T08:08:28.570Z,101221.52
2019-04-29T08:10:57.094Z,101222.06
2019-04-29T08:13:25.930Z,101219.87
2019-04-29T08:15:54.422Z,101217.94
2019-04-29T08:18:22.929Z,101210.29
2019-04-29T08:20:51.530Z,101206.16
2019-04-29T08:23:20.020Z,101208.36
2019-04-29T08:25:50.955Z,101204.52
2019-04-29T08:28:18.977Z,101215.22
2019-04-29T08:30:47.475Z,101210.83
2019-04-29T08:33:15.963Z,101211.67
2019-04-29T08:35:46.724Z,101212.73
2019-04-29T08:38:14.674Z,101210.29
2019-04-29T08:40:45.322Z,101202.62
2019-04-29T08:43:27.170Z,101204.52
2019-04-29T08:45:57.284Z,101201.79
2019-04-29T08:48:25.779Z,101201.22
2019-04-29T08:50:54.270Z,101199.83
2019-04-29T08:53:22.737Z,101202.27
2019-04-29T08:55:51.230Z,101200.05
2019-04-29T08:58:19.753Z,101198.11
2019-04-29T09:00:51.319Z,101196.45
2019-04-29T09:03:18.753Z,101202.73
2019-04-29T09:06:04.295Z,101201.04
2019-04-29T09:08:19.053Z,101200.71
2019-04-29T09:10:47.539Z,101200.71
2019-04-29T09:13:16.044Z,101200.69
2019-04-29T09:15:44.893Z,101190.25
2019-04-29T09:18:13.792Z,101191.56
2019-04-29T09:20:43.589Z,101189.03
2019-04-29T09:23:14.035Z,101188.61
2019-04-29T09:25:47.141Z,101184.48
2019-04-29T09:28:22.443Z,101185.89
2019-04-29T09:30:48.389Z,101177.77
2019-04-29T09:33:16.934Z,101179.89
2019-04-29T09:35:45.658Z,101187.50
2019-04-29T09:38:14.140Z,101187.66
2019-04-29T09:40:47.362Z,101184.52
2019-04-29T09:43:21.440Z,101186.83
2019-04-29T09:46:01.626Z,101185.74
2019-04-29T09:48:30.284Z,101186.14
2019-04-29T09:50:58.762Z,101178.79
2019-04-29T09:53:27.324Z,101183.04
2019-04-29T09:55:56.173Z,101179.86
2019-04-29T09:58:24.683Z,101178.27
2019-04-29T10:01:13.878Z,101176.21
2019-04-29T10:03:59.270Z,101169.47
2019-04-29T10:06:31.929Z,101182.48
2019-04-29T10:09:00.533Z,101170.95
2019-04-29T10:11:29.005Z,101167.03
2019-04-29T10:13:57.593Z,101168.48
2019-04-29T10:16:31.669Z,101173.06
2019-04-29T10:19:08.305Z,101166.78
2019-04-29T10:21:36.917Z,101168.70
2019-04-29T10:24:05.515Z,101168.34
2019-04-29T10:26:34.324Z,101167.78
2019-04-29T10:29:04.473Z,101178.53
2019-04-29T10:31:33.020Z,101173.89
2019-04-29T10:34:01.520Z,101184.21
2019-04-29T10:36:30.099Z,101178.99
2019-04-29T10:39:00.250Z,101179.30
2019-04-29T10:41:40.157Z,101174.68
2019-04-29T10:44:18.052Z,101176.16
2019-04-29T10:46:48.233Z,101178.13
2019-04-29T10:49:20.861Z,101173.89
2019-04-29T10:51:49.483Z,101170.53
2019-04-29T10:54:18.026Z,101166.32
2019-04-29T10:56:47.036Z,101166.68
2019-04-29T10:59:15.505Z,101165.05
2019-04-29T11:02:01.702Z,101170.77
2019-04-29T11:04:31.681Z,101173.30
2019-04-29T11:07:13.619Z,101171.58
2019-04-29T11:09:33.436Z,101180.42
2019-04-29T11:12:04.908Z,101174.91
2019-04-29T11:14:37.629Z,101172.27
2019-04-29T11:17:03.807Z,101171.68
2019-04-29T11:19:35.043Z,101174.77
2019-04-29T11:22:03.294Z,101180.84
2019-04-29T11:24:42.490Z,101178.86
2019-04-29T11:27:15.651Z,101183.59
2019-04-29T11:29:44.249Z,101174.45
2019-04-29T11:32:24.790Z,101175.34
2019-04-29T11:35:10.968Z,101174.62
2019-04-29T11:37:39.841Z,101177.69
2019-04-29T11:40:08.508Z,101176.98
2019-04-29T11:42:41.595Z,101177.72
2019-04-29T11:45:09.719Z,101181.86
2019-04-29T11:47:38.348Z,101178.70
2019-04-29T11:50:11.842Z,101176.41
2019-04-29T11:52:40.130Z,101170.71
2019-04-29T11:55:13.988Z,101182.13
2019-04-29T11:57:42.101Z,101175.27
2019-04-29T12:00:22.671Z,101174.91
2019-04-29T12:02:52.847Z,101169.48
2019-04-29T12:05:23.142Z,101180.42
2019-04-29T12:07:51.775Z,101168.53
2019-04-29T12:10:20.262Z,101166.84
2019-04-29T12:12:49.143Z,101165.04
2019-04-29T12:15:28.456Z,101162.81
2019-04-29T12:18:07.193Z,101170.09
2019-04-29T12:20:37.366Z,101167.71
2019-04-29T12:23:05.892Z,101163.42
2019-04-29T12:25:36.471Z,101155.31
2019-04-29T12:28:18.849Z,101156.56
2019-04-29T12:30:40.382Z,101164.08
2019-04-29T12:33:19.674Z,101163.23
2019-04-29T12:35:58.632Z,101161.19
2019-04-29T12:38:39.375Z,101151.13
2019-04-29T12:41:02.130Z,101154.01
2019-04-29T12:43:36.141Z,101149.92
2019-04-29T12:46:10.019Z,101154.80
2019-04-29T12:48:38.828Z,101148.48
2019-04-29T12:51:07.465Z,101148.80
2019-04-29T12:53:36.023Z,101147.49
2019-04-29T12:56:07.139Z,101148.30
2019-04-29T12:58:34.798Z,101141.71
2019-04-29T13:01:10.626Z,101147.95
2019-04-29T13:03:41.115Z,101143.95
2019-04-29T13:06:14.243Z,101147.07
2019-04-29T13:08:47.429Z,101143.53
2019-04-29T13:11:19.028Z,101137.27
2019-04-29T13:13:46.476Z,101132.81
2019-04-29T13:16:24.502Z,101138.69
2019-04-29T13:19:12.471Z,101135.91
2019-04-29T13:21:39.366Z,101130.25
2019-04-29T13:24:22.029Z,101132.43
2019-04-29T13:26:40.091Z,101131.74
2019-04-29T13:29:07.480Z,101121.69
2019-04-29T13:31:38.877Z,101133.44
2019-04-29T13:34:22.984Z,101124.83
2019-04-29T13:36:38.244Z,101127.91
2019-04-29T13:39:08.914Z,101123.38
2019-04-29T13:41:55.604Z,101122.20
2019-04-29T13:44:07.921Z,101123.56
2019-04-29T13:46:38.179Z,101122.23
2019-04-29T13:49:20.307Z,101123.27
2019-04-29T13:51:50.524Z,101122.23
2019-04-29T13:54:19.359Z,101112.41
2019-04-29T13:56:56.488Z,101111.16
2019-04-29T13:59:35.913Z,101110.91
2019-04-29T14:02:07.551Z,101103.09
2019-04-29T14:04:41.031Z,101109.77
2019-04-29T14:07:09.585Z,101105.80
2019-04-29T14:09:39.172Z,101105.53
2019-04-29T14:12:46.607Z,101115.87
2019-04-29T14:14:38.823Z,101105.45
2019-04-29T14:17:25.262Z,101109.88
2019-04-29T14:19:42.383Z,101108.27
2019-04-29T14:22:21.546Z,101111.81
2019-04-29T14:24:39.861Z,101107.53
2019-04-29T14:27:08.464Z,101116.72
2019-04-29T14:29:36.908Z,101106.88
2019-04-29T14:32:06.152Z,101109.20
2019-04-29T14:34:36.675Z,101105.23
2019-04-29T14:37:21.152Z,101097.27
2019-04-29T14:39:37.560Z,101096.67
2019-04-29T14:42:14.227Z,101088.98
2019-04-29T14:44:59.790Z,101089.59
2019-04-29T14:47:30.057Z,101090.09
2019-04-29T14:50:03.027Z,101089.12
2019-04-29T14:52:31.613Z,101088.48
2019-04-29T14:55:00.145Z,101087.11
2019-04-29T14:57:28.769Z,101093.61
2019-04-29T14:59:57.533Z,101085.06
2019-04-29T15:02:27.318Z,101086.48
2019-04-29T15:04:55.938Z,101082.80
2019-04-29T15:07:24.516Z,101084.17
2019-04-29T15:09:57.403Z,101080.67
2019-04-29T15:12:31.421Z,101083.96
2019-04-29T15:15:10.581Z,101073.77
2019-04-29T15:17:46.718Z,101082.62
2019-04-29T15:20:17.123Z,101078.99
2019-04-29T15:22:45.637Z,101080.08
2019-04-29T15:25:16.659Z,101078.90
2019-04-29T15:27:44.437Z,101082.23
2019-04-29T15:30:13.457Z,101079.12
2019-04-29T15:32:42.002Z,101083.73
2019-04-29T15:35:10.556Z,101077.16
2019-04-29T15:37:39.030Z,101081.28
2019-04-29T15:40:08.153Z,101081.57
2019-04-29T15:42:38.043Z,101078.62
2019-04-29T15:45:07.708Z,101075.60
2019-04-29T15:47:36.202Z,101085.31
2019-04-29T15:50:18.366Z,101077.16
2019-04-29T15:52:37.456Z,101076.42
2019-04-29T15:55:06.334Z,101079.47
2019-04-29T15:57:34.858Z,101082.66
2019-04-29T16:00:20.501Z,101074.39
2019-04-29T16:02:40.831Z,101075.06
2019-04-29T16:05:14.799Z,101085.44
2019-04-29T16:07:59.620Z,101077.77
2019-04-29T16:10:41.677Z,101077.13
2019-04-29T16:13:14.596Z,101085.36
2019-04-29T16:15:43.219Z,101081.95
2019-04-29T16:18:14.863Z,101074.44
2019-04-29T16:20:41.906Z,101079.59
2019-04-29T16:23:10.453Z,101079.77
2019-04-29T16:25:40.863Z,101082.28
2019-04-29T16:28:09.249Z,101083.67
2019-04-29T16:30:38.209Z,101084.47
2019-04-29T16:33:13.785Z,101075.88
2019-04-29T16:35:37.227Z,101075.02
2019-04-29T16:38:11.260Z,101083.31
2019-04-29T16:40:39.150Z,101076.22
2019-04-29T16:43:27.954Z,101077.81
2019-04-29T16:46:11.729Z,101075.92
2019-04-29T16:48:40.268Z,101084.80
2019-04-29T16:51:14.088Z,101084.33
2019-04-29T16:53:39.035Z,101084.27
2019-04-29T16:56:07.506Z,101090.23
2019-04-29T16:58:36.001Z,101091.41
2019-04-29T17:01:04.617Z,101095.53
2019-04-29T17:03:33.357Z,101094.03
2019-04-29T17:06:02.033Z,101096.80
2019-04-29T17:08:35.330Z,101105.96
2019-04-29T17:11:05.609Z,101116.68
2019-04-29T17:13:34.062Z,101104.89
2019-04-29T17:16:04.195Z,101112.13
2019-04-29T17:18:32.641Z,101107.36
2019-04-29T17:21:05.818Z,101110.88
2019-04-29T17:23:31.480Z,101114.16
2019-04-29T17:25:59.978Z,101113.86
2019-04-29T17:28:30.332Z,101122.33
2019-04-29T17:31:17.667Z,101126.27
2019-04-29T17:33:52.361Z,101119.55
2019-04-29T17:36:23.931Z,101133.99
2019-04-29T17:38:51.427Z,101133.33
2019-04-29T17:41:19.974Z,101127.34
2019-04-29T17:44:06.466Z,101130.52
2019-04-29T17:46:36.654Z,101131.60
2019-04-29T17:49:26.664Z,101134.28
2019-04-29T17:52:01.484Z,101138.37
2019-04-29T17:54:26.782Z,101135.92
2019-04-29T17:57:26.407Z,101142.17
2019-04-29T18:00:00.453Z,101139.03
2019-04-29T18:02:36.405Z,101145.90
2019-04-29T18:05:28.174Z,101153.41
2019-04-29T18:08:11.344Z,101156.23
2019-04-29T18:10:41.491Z,101157.07
2019-04-29T18:13:12.302Z,101163.98
2019-04-29T18:15:57.571Z,101169.32
2019-04-29T18:18:17.331Z,101171.16
2019-04-29T18:21:03.192Z,101170.05
2019-04-29T18:23:51.536Z,101172.61
2019-04-29T18:26:30.700Z,101172.61
2019-04-29T18:29:03.478Z,101167.81
2019-04-29T18:31:31.866Z,101181.22
2019-04-29T18:34:00.554Z,101181.58
2019-04-29T18:36:29.221Z,101181.85
2019-04-29T18:38:57.975Z,101188.27
2019-04-29T18:41:28.821Z,101194.94
2019-04-29T18:44:03.010Z,101195.33
2019-04-29T18:46:27.305Z,101193.02
2019-04-29T18:49:02.629Z,101198.63
2019-04-29T18:51:28.804Z,101202.78
2019-04-29T18:53:56.755Z,101199.30
2019-04-29T18:56:26.072Z,101205.45
2019-04-29T18:58:55.545Z,101213.24
2019-04-29T19:01:28.974Z,101215.63
2019-04-29T19:04:10.184Z,101219.20
2019-04-29T19:06:35.643Z,101220.94
2019-04-29T19:09:17.188Z,101215.79
2019-04-29T19:11:36.058Z,101219.36
2019-04-29T19:14:05.147Z,101226.84
2019-04-29T19:16:35.896Z,101226.91
2019-04-29T19:19:05.254Z,101232.36
2019-04-29T19:21:33.940Z,101222.76
2019-04-29T19:24:02.576Z,101228.38
2019-04-29T19:26:31.346Z,101235.50
2019-04-29T19:29:01.229Z,101234.78
2019-04-29T19:31:30.169Z,101238.08
2019-04-29T19:33:58.696Z,101243.86
2019-04-29T19:36:27.383Z,101240.59
2019-04-29T19:38:55.859Z,101231.89
2019-04-29T19:41:25.596Z,101234.91
2019-04-29T19:43:56.382Z,101241.19
2019-04-29T19:46:36.427Z,101238.49
2019-04-29T19:48:58.283Z,101241.52
2019-04-29T19:51:25.734Z,101230.58
2019-04-29T19:53:55.265Z,101233.33
2019-04-29T19:56:26.895Z,101237.70
2019-04-29T19:58:57.328Z,101236.36
2019-04-29T20:01:31.170Z,101253.89
2019-04-29T20:04:15.861Z,101241.56
2019-04-29T20:06:40.306Z,101251.41
2019-04-29T20:09:17.107Z,101248.95
2019-04-29T20:11:41.543Z,101252.25
2019-04-29T20:14:19.370Z,101255.80
2019-04-29T20:16:44.584Z,101260.47
2019-04-29T20:19:20.303Z,101256.06
2019-04-29T20:21:46.110Z,101262.91
2019-04-29T20:24:17.258Z,101258.55
2019-04-29T20:26:46.907Z,101261.83
2019-04-29T20:29:15.931Z,101261.54
2019-04-29T20:31:52.015Z,101264.27
2019-04-29T20:34:23.497Z,101265.35
2019-04-29T20:36:45.722Z,101270.55
2019-04-29T20:39:17.074Z,101270.83
2019-04-29T20:41:47.054Z,101275.19
2019-04-29T20:44:16.231Z,101278.16
2019-04-29T20:47:12.428Z,101281.48
2019-04-29T20:49:16.138Z,101275.96
2019-04-29T20:51:51.590Z,101277.11
2019-04-29T20:54:27.944Z,101283.63
2019-04-29T20:57:04.760Z,101281.97
2019-04-29T20:59:26.938Z,101280.30
2019-04-29T21:02:11.281Z,101281.68
2019-04-29T21:04:34.068Z,101290.42
2019-04-29T21:07:02.591Z,101289.89
2019-04-29T21:09:30.510Z,101290.98
2019-04-29T21:12:20.581Z,101290.67
2019-04-29T21:14:59.406Z,101286.83
2019-04-29T21:17:35.505Z,101293.36
2019-04-29T21:20:05.788Z,101290.53
2019-04-29T21:22:35.688Z,101291.02
2019-04-29T21:25:06.486Z,101299.56
2019-04-29T21:27:35.372Z,101299.25
2019-04-29T21:30:06.644Z,101298.68
2019-04-29T21:32:38.859Z,101301.90
2019-04-29T21:35:16.902Z,101304.92
2019-04-29T21:37:46.616Z,101302.02
2019-04-29T21:40:20.631Z,101301.61
2019-04-29T21:42:55.411Z,101300.09
2019-04-29T21:45:25.713Z,101301.87
2019-04-29T21:47:54.647Z,101305.08
2019-04-29T21:50:27.202Z,101308.05
2019-04-29T21:52:55.314Z,101307.47
2019-04-29T21:55:25.835Z,101303.75
2019-04-29T21:57:54.495Z,101313.72
2019-04-29T22:00:25.854Z,101309.91
2019-04-29T22:02:55.429Z,101302.67
2019-04-29T22:05:25.114Z,101307.18
2019-04-29T22:07:54.117Z,101301.59
2019-04-29T22:10:26.849Z,101304.66
2019-04-29T22:12:58.341Z,101305.73
2019-04-29T22:15:32.055Z,101301.39
2019-04-29T22:17:58.505Z,101300.17
2019-04-29T22:20:25.727Z,101300.47
2019-04-29T22:22:55.923Z,101305.15
2019-04-29T22:25:25.749Z,101308.91
2019-04-29T22:27:55.384Z,101309.45
2019-04-29T22:30:24.245Z,101303.11
2019-04-29T22:32:58.056Z,101300.95
2019-04-29T22:35:22.877Z,101310.98
2019-04-29T22:37:51.386Z,101313.55
2019-04-29T22:40:19.842Z,101312.22
2019-04-29T22:43:04.689Z,101310.08
2019-04-29T22:45:29.567Z,101307.65
2019-04-29T22:48:12.078Z,101311.45
2019-04-29T22:50:28.014Z,101308.76
2019-04-29T22:52:57.181Z,101304.81
2019-04-29T22:55:25.785Z,101306.77
2019-04-29T22:57:55.430Z,101306.67
2019-04-29T23:00:32.556Z,101304.32
2019-04-29T23:02:57.774Z,101306.36
2019-04-29T23:05:28.051Z,101303.72
2019-04-29T23:07:59.906Z,101299.15
2019-04-29T23:10:27.930Z,101295.83
2019-04-29T23:12:57.530Z,101295.00
2019-04-29T23:15:26.195Z,101300.92
2019-04-29T23:17:54.661Z,101301.23
2019-04-29T23:20:28.994Z,101306.14
2019-04-29T23:23:01.826Z,101301.28
2019-04-29T23:25:45.564Z,101297.45
2019-04-29T23:28:14.181Z,101297.59
2019-04-29T23:30:42.777Z,101297.19
2019-04-29T23:33:11.315Z,101288.82
2019-04-29T23:35:41.013Z,101291.67
2019-04-29T23:38:09.738Z,101287.45
2019-04-29T23:40:38.646Z,101291.63
2019-04-29T23:43:07.180Z,101288.00
2019-04-29T23:45:35.639Z,101288.42
2019-04-29T23:48:05.642Z,101282.25
2019-04-29T23:50:35.957Z,101278.34
2019-04-29T23:53:05.797Z,101277.86
2019-04-29T23:55:35.629Z,101274.17
2019-04-29T23:58:08.784Z,101269.86
